Time;durP1;ratioP1;P1;durP2;ratioP2;P2;SDS_P1;SDS_P2;PMS_P1;PMS_P2;Temp;Humidity;BMP_temperature;BMP_pressure;BME280_temperature;BME280_humidity;BME280_pressure;Samples;Min_cycle;Max_cycle;Signal;HPM_P1;HPM_P2
2021/12/26 00:00:47;;;;;;;27.53;16.90;;;3.60;99.90;;;;;;5015079;28;20221;-78
2021/12/26 00:03:13;;;;;;;23.10;16.47;;;3.70;99.90;;;;;;5015033;28;20184;-78
2021/12/26 00:05:39;;;;;;;27.03;17.80;;;3.80;99.90;;;;;;5015072;28;20173;-79
2021/12/26 00:08:05;;;;;;;24.13;17.20;;;3.80;99.90;;;;;;5014430;28;20196;-79
2021/12/26 00:10:31;;;;;;;21.93;16.43;;;3.80;99.90;;;;;;5014572;28;20180;-77
2021/12/26 00:12:58;;;;;;;21.87;16.33;;;3.90;99.90;;;;;;5014753;28;20180;-79
2021/12/26 00:15:24;;;;;;;25.73;17.17;;;3.90;99.90;;;;;;5014424;28;20183;-78
2021/12/26 00:17:50;;;;;;;24.20;16.43;;;3.80;99.90;;;;;;5014092;28;20192;-77
2021/12/26 00:20:17;;;;;;;27.77;18.60;;;3.80;99.90;;;;;;5014617;28;20588;-77
2021/12/26 00:22:43;;;;;;;23.00;16.47;;;3.80;99.90;;;;;;5014508;28;20234;-79
2021/12/26 00:25:10;;;;;;;34.90;18.50;;;3.80;99.90;;;;;;5014146;28;20649;-78
2021/12/26 00:27:37;;;;;;;25.13;17.83;;;3.80;99.90;;;;;;5013960;28;20215;-77
2021/12/26 00:30:13;;;;;;;26.73;17.97;;;3.80;99.90;;;;;;5014295;28;20193;-77
2021/12/26 00:32:39;;;;;;;47.37;18.40;;;3.80;99.90;;;;;;5014177;28;20619;-78
2021/12/26 00:35:07;;;;;;;40.43;18.27;;;3.70;99.90;;;;;;5013954;28;20546;-78
2021/12/26 00:37:32;;;;;;;56.13;17.90;;;3.70;99.90;;;;;;5013246;28;20232;-77
2021/12/26 00:39:58;;;;;;;38.97;18.50;;;3.60;99.90;;;;;;5013930;28;20572;-75
2021/12/26 00:42:23;;;;;;;50.50;19.70;;;3.60;99.90;;;;;;5013751;28;20762;-76
2021/12/26 00:44:49;;;;;;;35.87;18.30;;;3.60;99.90;;;;;;5012534;28;20181;-77
2021/12/26 00:47:15;;;;;;;46.67;19.27;;;3.60;99.90;;;;;;5012890;28;20205;-77
2021/12/26 00:49:41;;;;;;;39.27;19.33;;;3.60;99.90;;;;;;5013731;28;20185;-77
2021/12/26 00:52:08;;;;;;;39.53;18.53;;;3.60;99.90;;;;;;5013395;28;20177;-75
2021/12/26 00:54:34;;;;;;;30.90;19.07;;;3.50;99.90;;;;;;5013627;28;20183;-75
2021/12/26 00:57:00;;;;;;;53.03;21.40;;;3.60;99.90;;;;;;5013025;28;20227;-76
2021/12/26 00:59:26;;;;;;;41.53;20.67;;;3.60;99.90;;;;;;5013651;28;20181;-76
2021/12/26 01:01:53;;;;;;;69.90;19.67;;;3.60;99.90;;;;;;5013674;28;20331;-76
2021/12/26 01:04:19;;;;;;;73.10;21.07;;;3.50;99.90;;;;;;5013655;28;20180;-76
2021/12/26 01:06:45;;;;;;;44.10;20.30;;;3.50;99.90;;;;;;5013464;28;20184;-75
2021/12/26 01:09:17;;;;;;;50.63;21.53;;;3.70;99.90;;;;;;5013128;28;20200;-77
2021/12/26 01:11:48;;;;;;;58.17;21.70;;;3.60;99.90;;;;;;5013233;28;20180;-76
2021/12/26 01:14:16;;;;;;;48.30;20.17;;;3.60;99.90;;;;;;5013299;28;20283;-77
2021/12/26 01:16:43;;;;;;;82.27;20.33;;;3.60;99.90;;;;;;5013129;28;20665;-76
2021/12/26 01:19:14;;;;;;;62.53;20.20;;;3.50;99.90;;;;;;5012570;28;20227;-78
2021/12/26 01:21:41;;;;;;;118.63;22.40;;;3.60;99.90;;;;;;5012995;28;20711;-77
2021/12/26 01:24:10;;;;;;;60.87;20.73;;;3.50;99.90;;;;;;5012945;28;20181;-77
2021/12/26 01:26:36;;;;;;;37.27;19.17;;;3.50;99.90;;;;;;5012901;28;20208;-76
2021/12/26 01:29:03;;;;;;;32.83;19.50;;;3.50;99.90;;;;;;5012365;28;20199;-77
2021/12/26 01:31:29;;;;;;;40.43;19.17;;;3.50;99.90;;;;;;5012728;28;20172;-76
2021/12/26 01:34:00;;;;;;;32.53;18.93;;;3.50;99.90;;;;;;5012615;28;20322;-77
2021/12/26 01:36:27;;;;;;;36.97;18.60;;;3.60;99.90;;;;;;5012934;28;20242;-76
2021/12/26 01:38:55;;;;;;;48.60;18.70;;;3.60;99.90;;;;;;5012628;28;20207;-77
2021/12/26 01:41:21;;;;;;;38.73;18.77;;;3.60;99.90;;;;;;5012643;28;20204;-76
2021/12/26 01:43:48;;;;;;;29.13;18.40;;;3.60;99.90;;;;;;5012550;28;20198;-78
2021/12/26 01:46:15;;;;;;;33.67;17.57;;;3.60;99.90;;;;;;5012687;28;20196;-75
2021/12/26 01:48:41;;;;;;;41.77;17.37;;;3.60;99.90;;;;;;5011955;28;20203;-78
2021/12/26 01:51:06;;;;;;;36.67;17.07;;;3.50;99.90;;;;;;5012579;28;20263;-77
2021/12/26 01:53:38;;;;;;;42.13;16.10;;;3.50;99.90;;;;;;5012548;28;20173;-77
2021/12/26 01:56:06;;;;;;;46.23;15.93;;;3.50;99.90;;;;;;5012362;28;20187;-78
2021/12/26 01:58:33;;;;;;;33.57;16.20;;;3.50;99.90;;;;;;5013927;28;20193;-77
2021/12/26 02:01:18;;;;;;;28.27;16.33;;;3.60;99.90;;;;;;5014117;28;20219;-77
2021/12/26 02:03:44;;;;;;;32.27;16.03;;;3.60;99.90;;;;;;5012081;28;20184;-77
2021/12/26 02:06:10;;;;;;;23.27;14.77;;;3.60;99.90;;;;;;5012305;28;20646;-77
2021/12/26 02:08:36;;;;;;;22.27;16.20;;;3.60;99.90;;;;;;5011918;28;20231;-78
2021/12/26 02:11:03;;;;;;;24.27;14.93;;;3.70;99.90;;;;;;5012219;28;20179;-77
2021/12/26 02:13:30;;;;;;;21.60;15.07;;;3.70;99.90;;;;;;5011993;28;20654;-78
2021/12/26 02:15:56;;;;;;;24.57;14.73;;;3.60;99.90;;;;;;5012326;28;20254;-77
2021/12/26 02:18:22;;;;;;;24.17;15.07;;;3.60;99.90;;;;;;5011549;28;20208;-77
2021/12/26 02:23:27;;;;;;;27.73;14.60;;;3.60;99.90;;;;;;5012075;28;20595;-77
2021/12/26 02:28:38;;;;;;;21.83;13.17;;;3.60;99.90;;;;;;5011523;28;20188;-76
2021/12/26 02:31:05;;;;;;;23.83;13.50;;;3.70;99.90;;;;;;5011840;28;20550;-77
2021/12/26 02:33:31;;;;;;;22.47;13.87;;;3.50;99.90;;;;;;5011994;28;20176;-77
2021/12/26 02:35:57;;;;;;;17.53;13.23;;;3.50;99.90;;;;;;5011924;28;20265;-78
2021/12/26 02:38:23;;;;;;;18.47;13.23;;;3.60;99.90;;;;;;5011237;28;20741;-77
2021/12/26 02:40:51;;;;;;;18.97;12.70;;;3.60;99.90;;;;;;5011961;28;20207;-77
2021/12/26 02:43:19;;;;;;;18.80;13.77;;;3.70;99.90;;;;;;5010422;28;20200;-77
2021/12/26 02:45:45;;;;;;;20.17;12.70;;;3.70;99.90;;;;;;5011869;28;20246;-77
2021/12/26 02:48:11;;;;;;;17.47;12.87;;;3.70;99.90;;;;;;5011444;28;20569;-77
2021/12/26 02:50:39;;;;;;;16.73;12.60;;;3.70;99.90;;;;;;5011880;28;20191;-75
2021/12/26 02:53:07;;;;;;;18.73;13.37;;;3.70;99.90;;;;;;5011818;28;20543;-77
2021/12/26 02:55:34;;;;;;;16.80;12.97;;;3.80;99.90;;;;;;5011951;28;20184;-78
2021/12/26 02:58:07;;;;;;;18.37;13.33;;;3.80;99.90;;;;;;5011421;28;20208;-77
2021/12/26 03:00:45;;;;;;;16.13;12.47;;;3.90;99.90;;;;;;5011504;28;20701;-77
2021/12/26 03:03:11;;;;;;;18.40;12.73;;;3.90;99.90;;;;;;5011561;28;20579;-77
2021/12/26 03:05:40;;;;;;;20.77;13.63;;;3.80;99.90;;;;;;5011659;28;20594;-77
2021/12/26 03:08:08;;;;;;;18.47;12.73;;;3.90;99.90;;;;;;5013185;28;20204;-76
2021/12/26 03:10:34;;;;;;;16.87;12.50;;;3.90;99.90;;;;;;5015608;28;20202;-77
2021/12/26 03:13:02;;;;;;;16.00;12.20;;;3.90;99.90;;;;;;5015453;28;20254;-77
2021/12/26 03:15:30;;;;;;;18.50;12.80;;;3.80;99.90;;;;;;5015246;28;20646;-77
2021/12/26 03:17:56;;;;;;;17.80;12.33;;;3.90;99.90;;;;;;5014673;28;20196;-78
2021/12/26 03:20:25;;;;;;;19.27;13.10;;;3.70;99.90;;;;;;5015567;28;20180;-78
2021/12/26 03:22:51;;;;;;;15.57;12.10;;;3.80;99.90;;;;;;5015363;28;20195;-77
2021/12/26 03:25:22;;;;;;;18.33;13.30;;;3.70;99.90;;;;;;5015340;28;20176;-77
2021/12/26 03:27:49;;;;;;;16.10;12.50;;;3.80;99.90;;;;;;5014750;28;20565;-76
2021/12/26 03:30:19;;;;;;;18.13;12.83;;;3.80;99.90;;;;;;5015074;28;20795;-77
2021/12/26 03:32:45;;;;;;;17.43;13.07;;;3.80;99.90;;;;;;5015048;28;20183;-77
2021/12/26 03:35:10;;;;;;;20.63;12.83;;;3.80;99.90;;;;;;5014996;28;20176;-76
2021/12/26 03:37:38;;;;;;;17.17;12.93;;;3.80;99.90;;;;;;5014726;28;20207;-76
2021/12/26 03:40:06;;;;;;;17.57;12.50;;;3.70;99.90;;;;;;5015010;28;20187;-77
2021/12/26 03:42:32;;;;;;;20.40;13.07;;;3.80;99.90;;;;;;5014585;28;20216;-77
2021/12/26 03:44:58;;;;;;;19.20;12.47;;;3.80;99.90;;;;;;5014761;28;20691;-76
2021/12/26 03:47:25;;;;;;;17.73;12.20;;;3.60;99.90;;;;;;5014626;28;20300;-77
2021/12/26 03:49:51;;;;;;;17.23;13.60;;;3.60;99.90;;;;;;5014483;28;20203;-76
2021/12/26 03:52:17;;;;;;;16.93;13.53;;;3.70;99.90;;;;;;5014777;28;20268;-76
2021/12/26 03:54:42;;;;;;;18.10;13.20;;;3.70;99.90;;;;;;5014505;28;20276;-76
2021/12/26 03:57:08;;;;;;;17.57;12.77;;;3.60;99.90;;;;;;5014171;28;20188;-76
2021/12/26 03:59:34;;;;;;;17.77;14.07;;;3.70;99.90;;;;;;5014340;28;20176;-76
2021/12/26 04:01:59;;;;;;;18.57;12.93;;;3.70;99.90;;;;;;5014734;28;21169;-76
2021/12/26 04:04:26;;;;;;;19.23;13.83;;;3.60;99.90;;;;;;5014460;28;20181;-76
2021/12/26 04:06:51;;;;;;;18.73;13.40;;;3.70;99.90;;;;;;5014535;28;20212;-76
2021/12/26 04:09:18;;;;;;;20.93;14.50;;;3.80;99.90;;;;;;5014134;28;20257;-76
2021/12/26 04:11:45;;;;;;;20.33;14.33;;;3.70;99.90;;;;;;5014151;28;20177;-76
2021/12/26 04:14:13;;;;;;;23.13;15.03;;;3.60;99.90;;;;;;5014268;28;20181;-77
2021/12/26 04:16:39;;;;;;;21.23;14.33;;;3.70;99.90;;;;;;5014287;28;20191;-76
2021/12/26 04:19:05;;;;;;;21.50;15.27;;;3.60;99.90;;;;;;5013507;28;20295;-75
2021/12/26 04:21:31;;;;;;;22.07;14.83;;;3.70;99.90;;;;;;5014132;28;20350;-75
2021/12/26 04:23:56;;;;;;;22.90;15.00;;;3.70;99.90;;;;;;5013980;28;20207;-76
2021/12/26 04:26:22;;;;;;;19.33;14.47;;;3.70;99.90;;;;;;5014073;28;20183;-76
2021/12/26 04:28:48;;;;;;;22.63;14.63;;;3.60;99.90;;;;;;5013497;28;20196;-76
2021/12/26 04:31:13;;;;;;;23.40;15.47;;;3.60;99.90;;;;;;5014095;28;20185;-75
2021/12/26 04:33:39;;;;;;;25.80;14.53;;;3.70;99.90;;;;;;5013918;28;20179;-75
2021/12/26 04:36:05;;;;;;;21.70;15.37;;;3.60;99.90;;;;;;5014351;28;20679;-75
2021/12/26 04:38:31;;;;;;;23.07;14.77;;;3.70;99.90;;;;;;5013248;28;20196;-75
2021/12/26 04:40:57;;;;;;;21.60;15.90;;;3.70;99.90;;;;;;5013605;28;20255;-75
2021/12/26 04:43:24;;;;;;;21.07;14.57;;;3.70;99.90;;;;;;5013595;28;20201;-75
2021/12/26 04:45:50;;;;;;;22.87;15.73;;;3.70;99.90;;;;;;5014119;28;20259;-76
2021/12/26 04:48:16;;;;;;;22.00;15.47;;;3.70;99.90;;;;;;5013225;28;20632;-75
2021/12/26 04:50:42;;;;;;;21.37;15.03;;;3.70;99.90;;;;;;5013755;28;20258;-75
2021/12/26 04:53:09;;;;;;;23.20;14.87;;;3.70;99.90;;;;;;5013586;28;20580;-75
2021/12/26 04:55:35;;;;;;;21.53;15.27;;;3.70;99.90;;;;;;5013325;28;20550;-75
2021/12/26 04:58:01;;;;;;;22.13;15.20;;;3.70;99.90;;;;;;5012755;28;20283;-75
2021/12/26 05:00:30;;;;;;;21.20;15.93;;;3.80;99.90;;;;;;5013503;28;20204;-76
2021/12/26 05:02:57;;;;;;;21.83;16.27;;;3.70;99.90;;;;;;5013426;28;20254;-76
2021/12/26 05:05:26;;;;;;;24.27;17.30;;;3.80;99.90;;;;;;5013159;28;20179;-75
2021/12/26 05:07:53;;;;;;;21.57;16.10;;;3.70;99.90;;;;;;5015349;28;20348;-75
2021/12/26 05:10:18;;;;;;;25.50;16.17;;;3.80;99.90;;;;;;5014969;28;20299;-76
2021/12/26 05:12:44;;;;;;;25.77;16.37;;;3.80;99.90;;;;;;5014992;28;20680;-76
2021/12/26 05:15:12;;;;;;;25.63;16.23;;;3.70;99.90;;;;;;5018465;28;20262;-75
2021/12/26 05:17:38;;;;;;;24.17;16.40;;;3.70;99.90;;;;;;5013560;28;20221;-75
2021/12/26 05:20:04;;;;;;;27.17;16.77;;;3.70;99.90;;;;;;5014313;28;20177;-76
2021/12/26 05:22:30;;;;;;;22.00;16.63;;;3.70;99.90;;;;;;5013064;28;20598;-76
2021/12/26 05:24:55;;;;;;;25.33;17.87;;;3.80;99.90;;;;;;5013025;28;20263;-76
2021/12/26 05:27:21;;;;;;;22.80;16.33;;;3.80;99.90;;;;;;5012510;28;20204;-77
2021/12/26 05:29:46;;;;;;;22.93;16.00;;;3.80;99.90;;;;;;5012579;28;20581;-76
2021/12/26 05:32:12;;;;;;;24.27;16.90;;;3.80;99.90;;;;;;5012773;28;20184;-76
2021/12/26 05:34:37;;;;;;;24.03;17.63;;;3.80;99.90;;;;;;5012838;28;20172;-76
2021/12/26 05:37:03;;;;;;;22.27;16.77;;;3.80;99.90;;;;;;5012227;28;20188;-76
2021/12/26 05:39:29;;;;;;;25.63;17.10;;;3.80;99.90;;;;;;5012511;28;20172;-76
2021/12/26 05:41:54;;;;;;;27.40;18.30;;;3.90;99.90;;;;;;5012287;28;20228;-76
2021/12/26 05:44:20;;;;;;;25.63;17.80;;;3.80;99.90;;;;;;5012791;28;20207;-76
2021/12/26 05:46:45;;;;;;;24.17;17.87;;;3.80;99.90;;;;;;5012319;28;20609;-76
2021/12/26 05:49:11;;;;;;;23.80;17.67;;;3.90;99.90;;;;;;5012018;28;20205;-77
2021/12/26 05:51:39;;;;;;;24.07;17.53;;;3.90;99.90;;;;;;5012562;28;20188;-77
2021/12/26 05:54:05;;;;;;;26.77;18.17;;;3.90;99.90;;;;;;5012475;28;20180;-76
2021/12/26 05:56:30;;;;;;;27.20;18.80;;;3.90;99.90;;;;;;5012397;28;20238;-76
2021/12/26 05:58:56;;;;;;;26.27;17.70;;;3.90;99.90;;;;;;5012187;28;20677;-76
2021/12/26 06:01:21;;;;;;;25.90;18.53;;;3.90;99.90;;;;;;5012766;28;20208;-77
2021/12/26 06:03:47;;;;;;;23.87;17.03;;;3.90;99.90;;;;;;5012500;28;20183;-76
2021/12/26 06:06:13;;;;;;;27.47;17.80;;;4.00;99.90;;;;;;5012300;28;20187;-76
2021/12/26 06:08:38;;;;;;;23.37;17.37;;;4.00;99.90;;;;;;5011733;28;20673;-76
2021/12/26 06:11:04;;;;;;;22.80;16.83;;;4.00;99.90;;;;;;5012038;28;20185;-76
2021/12/26 06:13:31;;;;;;;25.13;16.60;;;4.00;99.90;;;;;;5012271;28;20180;-76
2021/12/26 06:15:57;;;;;;;22.40;16.07;;;4.00;99.90;;;;;;5012234;28;20215;-76
2021/12/26 06:18:23;;;;;;;22.47;16.37;;;3.90;99.90;;;;;;5011841;28;20236;-76
2021/12/26 06:20:48;;;;;;;22.47;15.70;;;4.00;99.90;;;;;;5012118;28;20200;-76
2021/12/26 06:23:14;;;;;;;22.80;15.53;;;4.00;99.90;;;;;;5011937;28;20638;-76
2021/12/26 06:25:40;;;;;;;22.73;16.30;;;4.00;99.90;;;;;;5011830;28;20203;-76
2021/12/26 06:28:06;;;;;;;24.00;16.43;;;4.00;99.90;;;;;;5011573;28;20222;-76
2021/12/26 06:30:32;;;;;;;23.53;17.43;;;4.00;99.90;;;;;;5012170;28;20196;-76
2021/12/26 06:32:58;;;;;;;20.80;16.70;;;4.00;99.90;;;;;;5011983;28;20181;-76
2021/12/26 06:35:23;;;;;;;21.10;15.13;;;3.90;99.90;;;;;;5011981;28;20177;-76
2021/12/26 06:37:49;;;;;;;22.57;15.87;;;4.00;99.90;;;;;;5011587;28;20203;-76
2021/12/26 06:40:14;;;;;;;20.07;15.57;;;3.90;99.90;;;;;;5011637;28;20173;-76
2021/12/26 06:42:43;;;;;;;22.47;17.00;;;4.00;99.90;;;;;;5012759;28;20307;-76
2021/12/26 06:45:10;;;;;;;24.90;15.47;;;3.90;99.90;;;;;;5015826;28;20546;-76
2021/12/26 06:47:36;;;;;;;20.70;14.37;;;3.90;99.90;;;;;;5015512;28;20208;-75
2021/12/26 06:50:03;;;;;;;20.37;15.17;;;3.90;99.90;;;;;;5015884;28;20255;-75
2021/12/26 06:52:28;;;;;;;21.80;14.17;;;3.90;99.90;;;;;;5015698;28;20176;-76
2021/12/26 06:54:54;;;;;;;20.63;15.40;;;3.90;99.90;;;;;;5015944;28;20719;-75
2021/12/26 06:57:19;;;;;;;21.10;15.70;;;4.00;99.90;;;;;;5015429;28;20200;-75
2021/12/26 06:59:45;;;;;;;21.47;15.60;;;4.00;99.90;;;;;;5015956;28;20274;-77
2021/12/26 07:02:10;;;;;;;20.67;15.33;;;4.00;99.90;;;;;;5015500;28;20267;-76
2021/12/26 07:04:36;;;;;;;17.57;13.90;;;4.00;99.90;;;;;;5015782;28;20177;-77
2021/12/26 07:07:02;;;;;;;19.50;13.93;;;4.00;99.90;;;;;;5015150;28;20184;-76
2021/12/26 07:09:27;;;;;;;20.80;14.80;;;4.00;99.90;;;;;;5015457;28;20181;-78
2021/12/26 07:11:53;;;;;;;19.43;14.30;;;4.00;99.90;;;;;;5015576;28;20664;-78
2021/12/26 07:14:18;;;;;;;20.23;14.37;;;4.10;99.90;;;;;;5015171;28;20172;-78
2021/12/26 07:16:44;;;;;;;17.87;14.13;;;4.00;99.90;;;;;;5015792;28;20404;-78
2021/12/26 07:19:09;;;;;;;17.83;13.80;;;4.10;99.90;;;;;;5015363;28;20223;-78
2021/12/26 07:21:35;;;;;;;18.67;14.00;;;4.10;99.90;;;;;;5015309;28;20212;-77
2021/12/26 07:24:00;;;;;;;18.90;15.00;;;4.10;99.90;;;;;;5015488;28;20177;-77
2021/12/26 07:26:26;;;;;;;18.73;13.60;;;4.10;99.90;;;;;;5010360;28;20292;-77
2021/12/26 07:28:52;;;;;;;16.80;13.57;;;4.10;99.90;;;;;;5003805;28;20184;-76
2021/12/26 07:31:17;;;;;;;17.77;13.40;;;4.20;99.90;;;;;;5004656;28;20549;-76
2021/12/26 07:33:43;;;;;;;16.90;13.40;;;4.20;99.90;;;;;;5005576;28;20634;-76
2021/12/26 07:36:08;;;;;;;18.50;14.10;;;4.30;99.90;;;;;;5003524;28;20177;-77
2021/12/26 07:38:34;;;;;;;19.40;12.73;;;4.30;99.90;;;;;;5004318;28;20287;-75
2021/12/26 07:41:00;;;;;;;19.07;14.33;;;4.30;99.90;;;;;;5005079;28;20247;-75
2021/12/26 07:43:25;;;;;;;16.60;13.13;;;4.30;99.90;;;;;;5004609;28;20189;-78
2021/12/26 07:45:51;;;;;;;17.90;13.87;;;4.40;99.90;;;;;;5004975;28;20272;-77
2021/12/26 07:48:16;;;;;;;17.90;13.57;;;4.50;99.90;;;;;;5005823;28;20189;-78
2021/12/26 07:50:42;;;;;;;19.60;14.10;;;4.50;99.90;;;;;;5006921;28;20166;-78
2021/12/26 07:53:11;;;;;;;16.50;12.67;;;4.50;99.90;;;;;;5004301;28;20176;-77
2021/12/26 07:55:38;;;;;;;15.80;12.57;;;4.60;99.90;;;;;;5006149;28;20177;-79
2021/12/26 07:58:04;;;;;;;18.10;13.90;;;4.70;99.90;;;;;;5010590;28;20189;-79
2021/12/26 08:00:30;;;;;;;17.80;13.77;;;4.70;99.90;;;;;;5008775;28;20669;-79
2021/12/26 08:02:57;;;;;;;18.23;13.30;;;4.60;99.90;;;;;;5005466;28;20212;-78
2021/12/26 08:05:23;;;;;;;18.93;13.97;;;4.70;99.90;;;;;;5012917;28;20664;-78
2021/12/26 08:07:48;;;;;;;18.90;14.50;;;4.80;99.90;;;;;;5009267;28;20208;-78
2021/12/26 08:10:14;;;;;;;17.83;14.03;;;4.90;99.90;;;;;;5003485;28;20174;-78
2021/12/26 08:12:40;;;;;;;18.00;14.07;;;4.90;99.90;;;;;;5005251;28;20228;-80
2021/12/26 08:15:06;;;;;;;18.40;13.20;;;4.90;99.90;;;;;;5002504;28;20187;-78
2021/12/26 08:17:31;;;;;;;18.47;13.37;;;4.90;99.90;;;;;;4997368;28;20209;-79
2021/12/26 08:19:58;;;;;;;17.63;12.70;;;4.90;99.90;;;;;;5013767;28;20644;-79
2021/12/26 08:22:24;;;;;;;15.10;12.03;;;5.00;99.90;;;;;;5015231;28;20307;-77
2021/12/26 08:24:49;;;;;;;18.13;13.57;;;5.00;99.90;;;;;;5008911;28;20614;-79
2021/12/26 08:27:15;;;;;;;16.07;12.27;;;5.10;99.90;;;;;;5001154;28;20196;-77
2021/12/26 08:29:41;;;;;;;15.60;12.47;;;5.00;99.90;;;;;;5002198;28;20304;-79
2021/12/26 08:32:11;;;;;;;14.77;11.20;;;5.20;99.90;;;;;;5007154;28;20204;-80
2021/12/26 08:34:37;;;;;;;15.97;12.60;;;5.20;99.90;;;;;;5003678;28;20223;-81
2021/12/26 08:37:04;;;;;;;14.57;11.50;;;5.30;99.90;;;;;;5007852;28;20180;-78
2021/12/26 08:39:32;;;;;;;14.20;10.90;;;5.30;99.90;;;;;;5002464;28;20188;-76
2021/12/26 08:41:58;;;;;;;14.13;11.30;;;5.20;99.90;;;;;;5008889;28;20262;-77
2021/12/26 08:44:24;;;;;;;13.27;10.70;;;5.30;99.90;;;;;;5009974;28;20264;-77
2021/12/26 08:46:50;;;;;;;13.53;10.43;;;5.30;99.90;;;;;;5004700;28;20267;-80
2021/12/26 08:49:16;;;;;;;13.50;10.77;;;5.20;99.90;;;;;;5012507;28;20200;-79
2021/12/26 08:51:42;;;;;;;12.40;10.17;;;5.50;99.90;;;;;;5016654;28;20263;-81
2021/12/26 08:54:08;;;;;;;14.00;10.53;;;5.50;99.90;;;;;;5016894;28;20223;-78
2021/12/26 08:56:34;;;;;;;14.73;12.40;;;5.30;99.90;;;;;;5011651;28;20182;-79
2021/12/26 08:59:00;;;;;;;16.57;12.13;;;5.20;99.90;;;;;;5000193;28;20228;-78
2021/12/26 09:01:26;;;;;;;13.87;10.70;;;5.10;99.90;;;;;;5004358;28;20219;-79
2021/12/26 09:03:51;;;;;;;13.13;10.23;;;5.00;99.90;;;;;;5006943;28;20195;-79
2021/12/26 09:06:17;;;;;;;12.03;10.37;;;4.90;99.90;;;;;;5006281;28;20184;-79
2021/12/26 09:08:42;;;;;;;16.40;10.43;;;5.00;99.90;;;;;;5006470;28;20188;-78
2021/12/26 09:11:08;;;;;;;12.97;9.90;;;5.10;99.90;;;;;;5004915;28;20177;-77
2021/12/26 09:13:35;;;;;;;12.47;10.27;;;5.20;99.90;;;;;;5004954;28;20558;-77
2021/12/26 09:16:01;;;;;;;13.20;10.57;;;5.20;99.90;;;;;;5005840;28;20181;-78
2021/12/26 09:18:27;;;;;;;14.20;10.53;;;5.20;99.90;;;;;;5003948;28;20213;-78
2021/12/26 09:20:53;;;;;;;13.17;10.37;;;5.20;99.90;;;;;;5003968;28;20187;-78
2021/12/26 09:23:18;;;;;;;14.90;11.17;;;5.20;99.90;;;;;;5010086;28;20192;-78
2021/12/26 09:25:44;;;;;;;14.27;11.33;;;5.20;99.90;;;;;;5017174;28;20180;-78
2021/12/26 09:28:10;;;;;;;13.57;10.90;;;5.20;99.90;;;;;;5009055;28;20251;-79
2021/12/26 09:30:37;;;;;;;13.63;11.03;;;5.30;99.90;;;;;;5007812;28;20181;-77
2021/12/26 09:33:03;;;;;;;15.03;10.70;;;5.30;99.90;;;;;;5013962;28;20184;-79
2021/12/26 09:35:29;;;;;;;13.27;10.70;;;5.50;99.90;;;;;;5015523;28;20180;-79
2021/12/26 09:37:54;;;;;;;13.50;10.60;;;5.50;99.90;;;;;;5016540;28;20250;-79
2021/12/26 09:40:20;;;;;;;11.53;9.30;;;5.50;99.90;;;;;;5017248;28;20680;-77
2021/12/26 09:42:46;;;;;;;12.10;9.63;;;5.30;99.90;;;;;;5016226;28;20215;-78
2021/12/26 09:45:13;;;;;;;12.40;9.40;;;5.20;99.90;;;;;;5017144;28;20176;-78
2021/12/26 09:47:39;;;;;;;10.20;8.70;;;5.10;99.90;;;;;;5015219;28;20211;-78
2021/12/26 09:50:07;;;;;;;11.17;9.20;;;5.10;99.90;;;;;;5015589;28;20185;-81
2021/12/26 09:52:34;;;;;;;12.40;9.23;;;5.20;99.90;;;;;;5014272;28;20206;-79
2021/12/26 09:55:00;;;;;;;11.73;9.27;;;5.20;99.90;;;;;;4999314;28;20629;-78
2021/12/26 09:57:28;;;;;;;12.60;9.20;;;5.30;99.90;;;;;;4996009;28;20196;-79
2021/12/26 09:59:54;;;;;;;12.10;9.50;;;5.40;99.90;;;;;;5003050;28;20199;-79
2021/12/26 10:02:20;;;;;;;10.90;8.37;;;5.40;99.90;;;;;;5002201;28;20741;-79
2021/12/26 10:04:48;;;;;;;11.23;8.47;;;5.40;99.90;;;;;;4995307;28;20252;-78
2021/12/26 10:07:17;;;;;;;11.50;9.03;;;5.60;99.90;;;;;;4996091;28;20200;-78
2021/12/26 10:09:46;;;;;;;11.07;8.57;;;5.90;99.90;;;;;;4995830;28;20177;-77
2021/12/26 10:12:13;;;;;;;11.47;9.13;;;5.90;99.90;;;;;;4994169;28;20173;-77
2021/12/26 10:14:41;;;;;;;14.37;9.57;;;5.80;99.90;;;;;;4994041;28;20217;-78
2021/12/26 10:17:17;;;;;;;12.13;9.53;;;5.80;99.90;;;;;;4993551;28;20181;-78
2021/12/26 10:19:45;;;;;;;13.17;9.10;;;5.90;99.90;;;;;;4994065;28;20208;-78
2021/12/26 10:22:13;;;;;;;11.87;9.57;;;6.00;99.90;;;;;;4994370;28;20216;-78
2021/12/26 10:24:42;;;;;;;11.13;8.73;;;6.20;99.90;;;;;;4994942;28;20177;-80
2021/12/26 10:27:13;;;;;;;10.13;8.57;;;6.20;99.90;;;;;;4994173;28;20712;-80
2021/12/26 10:29:44;;;;;;;10.40;8.30;;;6.60;99.90;;;;;;5006323;28;20256;-79
2021/12/26 10:32:17;;;;;;;11.30;8.20;;;6.70;99.90;;;;;;5003249;28;20173;-79
2021/12/26 10:34:48;;;;;;;9.03;7.77;;;6.70;99.90;;;;;;5005091;28;20169;-80
2021/12/26 10:37:28;;;;;;;10.23;7.77;;;6.50;99.90;;;;;;5003143;28;20188;-80
2021/12/26 10:40:04;;;;;;;9.97;8.07;;;6.50;99.90;;;;;;5002583;28;20181;-80
2021/12/26 10:42:32;;;;;;;9.93;8.13;;;6.50;99.90;;;;;;4994473;28;20708;-78
2021/12/26 10:45:04;;;;;;;10.97;8.27;;;6.40;99.90;;;;;;4995492;28;20184;-79
2021/12/26 10:47:33;;;;;;;9.13;7.47;;;6.60;99.90;;;;;;5012920;28;20266;-79
2021/12/26 10:50:03;;;;;;;9.13;7.97;;;6.60;99.90;;;;;;5004733;28;20204;-80
2021/12/26 10:52:58;;;;;;;9.60;8.60;;;7.00;99.90;;;;;;4996767;28;20626;-81
2021/12/26 10:55:31;;;;;;;12.07;9.03;;;7.30;99.90;;;;;;4995011;28;20674;-79
2021/12/26 10:58:00;;;;;;;10.60;8.70;;;7.20;99.90;;;;;;4996158;28;20220;-80
2021/12/26 11:00:33;;;;;;;10.30;8.57;;;7.00;99.90;;;;;;4994882;28;20177;-79
2021/12/26 11:03:34;;;;;;;15.93;14.20;;;6.50;99.90;;;;;;4995394;28;20791;-80
2021/12/26 11:06:06;;;;;;;10.40;8.70;;;6.50;99.90;;;;;;4994940;28;20315;-80
2021/12/26 11:08:39;;;;;;;13.37;9.13;;;6.60;99.90;;;;;;4994101;28;20262;-80
2021/12/26 11:11:16;;;;;;;10.97;8.83;;;6.30;99.90;;;;;;4994336;28;20262;-81
2021/12/26 11:13:42;;;;;;;10.67;8.93;;;6.10;99.90;;;;;;4994821;28;20169;-80
2021/12/26 11:16:08;;;;;;;9.73;8.03;;;6.00;99.90;;;;;;4994241;28;20201;-79
2021/12/26 11:18:36;;;;;;;10.23;8.43;;;5.90;99.90;;;;;;4993817;28;20196;-79
2021/12/26 11:21:06;;;;;;;11.13;9.70;;;6.10;99.90;;;;;;4994797;28;20264;-78
2021/12/26 11:23:38;;;;;;;10.67;8.93;;;6.10;99.90;;;;;;4994056;28;20663;-78
2021/12/26 11:26:09;;;;;;;12.53;9.67;;;6.10;99.90;;;;;;4994257;28;20189;-79
2021/12/26 11:28:40;;;;;;;13.07;9.97;;;6.20;99.90;;;;;;4994718;28;20192;-78
2021/12/26 11:31:16;;;;;;;12.40;9.67;;;6.40;99.90;;;;;;4997896;28;20184;-79
2021/12/26 11:33:42;;;;;;;12.30;9.87;;;6.30;99.90;;;;;;4998350;28;20173;-80
2021/12/26 11:36:10;;;;;;;13.50;10.07;;;6.40;99.90;;;;;;4998326;28;20878;-79
2021/12/26 11:38:36;;;;;;;13.00;10.33;;;6.50;99.90;;;;;;4997970;28;20204;-80
2021/12/26 11:41:05;;;;;;;12.00;9.80;;;6.40;99.90;;;;;;4997866;28;20658;-79
2021/12/26 11:43:55;;;;;;;12.57;10.43;;;6.40;99.90;;;;;;4997842;28;20211;-81
2021/12/26 11:46:52;;;;;;;11.37;10.17;;;6.60;99.90;;;;;;4998514;28;20192;-79
2021/12/26 11:49:21;;;;;;;11.43;9.67;;;6.80;99.90;;;;;;4999580;28;20200;-81
2021/12/26 11:52:19;;;;;;;12.83;10.43;;;7.00;99.90;;;;;;5000815;28;20185;-80
2021/12/26 11:54:57;;;;;;;11.93;9.50;;;7.10;99.90;;;;;;4999882;28;20184;-79
2021/12/26 11:57:51;;;;;;;11.80;10.13;;;7.30;99.90;;;;;;4999305;28;20197;-81
2021/12/26 12:00:29;;;;;;;11.50;9.67;;;7.40;99.90;;;;;;5000706;28;20174;-81
2021/12/26 12:02:58;;;;;;;11.80;9.87;;;7.70;99.90;;;;;;4999489;28;20228;-80
2021/12/26 12:05:35;;;;;;;9.00;7.87;;;8.30;99.90;;;;;;5001236;28;20174;-79
2021/12/26 12:08:04;;;;;;;10.93;8.27;;;8.60;41.60;;;;;;4995738;28;20228;-81
2021/12/26 12:10:41;;;;;;;9.90;7.23;;;8.30;11.00;;;;;;4997121;28;20177;-79
2021/12/26 12:13:08;;;;;;;9.67;7.60;;;8.40;1.00;;;;;;4996544;28;20660;-77
2021/12/26 12:15:58;;;;;;;10.03;8.20;;;8.40;1.00;;;;;;4995662;28;20198;-79
2021/12/26 12:18:25;;;;;;;9.37;8.10;;;8.10;25.80;;;;;;4995777;28;20700;-80
2021/12/26 12:21:06;;;;;;;9.13;7.80;;;8.10;99.90;;;;;;4995646;28;20677;-79
2021/12/26 12:23:32;;;;;;;10.37;7.80;;;8.60;1.00;;;;;;4995020;28;20185;-79
2021/12/26 12:25:58;;;;;;;9.90;8.43;;;8.60;99.90;;;;;;4996790;28;20177;-79
2021/12/26 12:28:28;;;;;;;9.17;7.90;;;8.90;21.20;;;;;;4995912;28;20243;-80
2021/12/26 12:30:57;;;;;;;10.40;7.37;;;9.40;1.00;;;;;;4996705;28;20252;-79
2021/12/26 12:33:32;;;;;;;7.87;7.03;;;8.60;1.00;;;;;;4995817;28;20172;-80
2021/12/26 12:36:02;;;;;;;9.83;7.87;;;8.30;1.00;;;;;;4996398;28;20178;-80
2021/12/26 12:38:30;;;;;;;10.37;8.57;;;8.30;59.90;;;;;;4995529;28;20200;-79
2021/12/26 12:40:57;;;;;;;10.63;8.80;;;8.10;99.90;;;;;;4994729;28;20520;-79
2021/12/26 12:43:25;;;;;;;10.67;8.80;;;8.10;99.90;;;;;;4996080;28;20201;-79
2021/12/26 12:45:54;;;;;;;11.40;8.60;;;7.70;99.90;;;;;;4995882;28;20646;-79
2021/12/26 12:48:28;;;;;;;10.67;9.10;;;7.90;99.90;;;;;;4993768;28;20209;-79